ADDS METAR Data INFO
IDs: Format: Raw Decoded Include TAF

Data at: 0347 UTC 18 Oct 2017

KHWD 180254Z 27005KT 10SM CLR 16/09 A3006 RMK AO2 SLP189 T01560089 53008
No TAF found for KHWD

KRDD 180253Z 00000KT 10SM CLR 20/00 A3002 RMK AO2 SLP164 T02000000 53003

KRDD 172343Z 1800/1824 VRB03KT P6SM SCT250

KRTS 180335Z AUTO 28005KT 10SM CLR 13/M10 A3022 RMK AO2
No TAF found for KRTS